Terminal Aerodrome Forecast
Issued by NWS

Home | Current Version | Previous Version | Text Only | Print | Product List | Glossary On
Versions: 1 2 3 4 5 6 7 8 9 10 11 12 13 14 15 16 17 18
000
FTUS43 KLSX 190500
TAFUIN
TAF
KUIN 190523Z 1906/2006 05005KT 6SM BR OVC025
     FM190800 VRB03KT 5SM BR OVC015
     FM191000 VRB03KT 3SM BR OVC007
     FM191700 12004KT 5SM BR OVC015
     FM192100 16004KT P6SM OVC020=

USA.gov is the U.S. government's official web portal to all federal, state and local government web resources and services.